createdAt,value
2023-02-03T00:00:11.986Z,4.10
2023-02-03T00:02:40.603Z,5.40
2023-02-03T00:05:09.687Z,4.60
2023-02-03T00:07:38.680Z,5.80
2023-02-03T00:10:08.413Z,5.80
2023-02-03T00:12:37.230Z,5.30
2023-02-03T00:15:06.810Z,4.60
2023-02-03T00:17:35.611Z,4.80
2023-02-03T00:20:04.611Z,5.00
2023-02-03T00:22:33.374Z,5.70
2023-02-03T00:25:02.051Z,4.90
2023-02-03T00:27:32.201Z,4.80
2023-02-03T00:30:01.134Z,5.10
2023-02-03T00:32:30.819Z,5.60
2023-02-03T00:34:59.688Z,4.70
2023-02-03T00:37:28.983Z,5.30
2023-02-03T00:39:57.648Z,5.60
2023-02-03T00:42:26.819Z,5.60
2023-02-03T00:44:55.561Z,5.40
2023-02-03T00:47:24.347Z,5.20
2023-02-03T00:49:54.407Z,5.20
2023-02-03T00:52:23.448Z,4.60
2023-02-03T00:54:52.258Z,5.20
2023-02-03T00:57:20.855Z,5.20
2023-02-03T00:59:49.819Z,5.20
2023-02-03T01:02:18.432Z,4.90
2023-02-03T01:04:47.381Z,5.30
2023-02-03T01:07:17.215Z,4.40
2023-02-03T01:09:46.152Z,3.70
2023-02-03T01:12:14.814Z,4.70
2023-02-03T01:14:43.921Z,4.50
2023-02-03T01:17:12.525Z,5.10
2023-02-03T01:19:41.300Z,5.30
2023-02-03T01:22:09.964Z,4.40
2023-02-03T01:24:38.958Z,4.30
2023-02-03T01:27:07.711Z,4.80
2023-02-03T01:29:36.638Z,5.20
2023-02-03T01:32:05.827Z,4.50
2023-02-03T01:34:37.452Z,4.90
2023-02-03T01:37:08.061Z,4.30
2023-02-03T01:39:36.947Z,4.30
2023-02-03T01:42:06.267Z,5.20
2023-02-03T01:44:39.738Z,4.90
2023-02-03T01:47:14.160Z,4.90
2023-02-03T01:49:42.840Z,4.40
2023-02-03T01:52:11.437Z,5.30
2023-02-03T01:54:41.933Z,5.80
2023-02-03T01:57:20.538Z,5.10
2023-02-03T01:59:49.857Z,5.20
2023-02-03T02:02:18.721Z,5.60
2023-02-03T02:04:57.291Z,5.40
2023-02-03T02:07:25.858Z,5.50
2023-02-03T02:09:55.393Z,6.30
2023-02-03T02:12:24.409Z,5.10
2023-02-03T02:14:53.164Z,5.80
2023-02-03T02:17:36.017Z,5.10
2023-02-03T02:20:18.607Z,5.10
2023-02-03T02:22:54.656Z,5.40
2023-02-03T02:26:03.341Z,5.30
2023-02-03T02:28:53.784Z,5.50
2023-02-03T02:31:34.372Z,5.10
2023-02-03T02:34:09.793Z,4.70
2023-02-03T02:36:46.073Z,5.60
2023-02-03T02:39:43.328Z,4.90
2023-02-03T02:42:18.085Z,5.50
2023-02-03T02:44:52.261Z,5.30
2023-02-03T02:47:21.696Z,5.90
2023-02-03T02:50:03.980Z,5.90
2023-02-03T02:52:35.853Z,5.80
2023-02-03T02:55:24.865Z,5.80
2023-02-03T02:57:55.567Z,5.70
2023-02-03T03:00:24.747Z,5.40
2023-02-03T03:02:57.870Z,5.50
2023-02-03T03:05:26.421Z,7.60
2023-02-03T03:07:59.407Z,6.50
2023-02-03T03:10:29.306Z,5.70
2023-02-03T03:13:01.247Z,5.70
2023-02-03T03:18:11.811Z,6.00
2023-02-03T03:20:43.102Z,5.50
2023-02-03T03:23:16.419Z,6.00
2023-02-03T03:25:52.135Z,6.10
2023-02-03T03:28:27.016Z,5.00
2023-02-03T03:30:55.922Z,4.90
2023-02-03T03:33:24.631Z,6.30
2023-02-03T03:35:55.427Z,5.40
2023-02-03T03:38:32.198Z,4.60
2023-02-03T03:41:07.316Z,4.20
2023-02-03T03:43:39.209Z,5.10
2023-02-03T03:46:20.025Z,4.50
2023-02-03T03:48:52.518Z,4.70
2023-02-03T03:51:35.219Z,5.10
2023-02-03T03:54:06.299Z,5.00
2023-02-03T03:56:39.543Z,3.90
2023-02-03T03:59:08.360Z,4.50
2023-02-03T04:01:37.632Z,4.20
2023-02-03T04:04:07.754Z,4.30
2023-02-03T04:06:38.803Z,4.10
2023-02-03T04:09:08.415Z,4.60
2023-02-03T04:11:56.624Z,5.60
2023-02-03T04:14:25.034Z,4.60
2023-02-03T04:16:53.721Z,4.80
2023-02-03T04:19:22.160Z,5.00
2023-02-03T04:21:53.026Z,4.40
2023-02-03T04:24:21.685Z,3.40
2023-02-03T04:26:50.446Z,5.40
2023-02-03T04:29:19.208Z,5.90
2023-02-03T04:31:49.748Z,3.80
2023-02-03T04:34:18.388Z,3.90
2023-02-03T04:36:47.489Z,4.80
2023-02-03T04:39:16.179Z,3.80
2023-02-03T04:41:45.112Z,3.60
2023-02-03T04:44:13.755Z,3.90
2023-02-03T04:46:42.497Z,3.30
2023-02-03T04:49:11.932Z,2.80
2023-02-03T04:51:41.273Z,3.90
2023-02-03T04:54:10.747Z,3.70
2023-02-03T04:56:40.794Z,5.50
2023-02-03T04:59:09.553Z,4.60
2023-02-03T05:01:41.690Z,4.40
2023-02-03T05:04:10.340Z,4.40
2023-02-03T05:06:39.272Z,4.50
2023-02-03T05:09:08.335Z,3.50
2023-02-03T05:11:37.198Z,4.40
2023-02-03T05:14:06.233Z,3.70
2023-02-03T05:16:35.000Z,4.30
2023-02-03T05:19:03.988Z,3.60
2023-02-03T05:21:32.979Z,3.70
2023-02-03T05:24:03.430Z,3.70
2023-02-03T05:26:32.039Z,3.70
2023-02-03T05:29:01.116Z,2.90
2023-02-03T05:31:30.182Z,3.80
2023-02-03T05:33:59.432Z,3.60
2023-02-03T05:36:28.240Z,3.20
2023-02-03T05:38:57.046Z,3.30
2023-02-03T05:41:44.466Z,3.10
2023-02-03T05:44:13.026Z,3.20
2023-02-03T05:46:41.575Z,2.70
2023-02-03T05:49:10.005Z,2.80
2023-02-03T05:51:39.792Z,3.30
2023-02-03T05:54:08.996Z,2.70
2023-02-03T05:56:37.958Z,3.80
2023-02-03T05:59:06.909Z,3.20
2023-02-03T06:01:35.730Z,3.80
2023-02-03T06:04:04.904Z,3.90
2023-02-03T06:06:34.197Z,3.80
2023-02-03T06:09:05.073Z,4.20
2023-02-03T06:11:36.238Z,3.90
2023-02-03T06:14:05.333Z,3.40
2023-02-03T06:16:34.451Z,4.10
2023-02-03T06:19:03.501Z,3.70
2023-02-03T06:21:32.602Z,4.00
2023-02-03T06:24:01.293Z,4.50
2023-02-03T06:26:30.050Z,4.00
2023-02-03T06:28:58.821Z,4.40
2023-02-03T06:31:27.693Z,4.60
2023-02-03T06:33:57.505Z,3.90
2023-02-03T06:36:26.332Z,4.00
2023-02-03T06:38:54.994Z,5.10
2023-02-03T06:41:27.780Z,4.20
2023-02-03T06:43:56.589Z,4.30
2023-02-03T06:46:29.992Z,5.40
2023-02-03T06:48:58.766Z,5.30
2023-02-03T06:51:27.786Z,4.10
2023-02-03T06:53:58.983Z,4.30
2023-02-03T06:56:27.857Z,4.20
2023-02-03T06:58:56.698Z,4.40
2023-02-03T07:01:26.219Z,4.20
2023-02-03T07:03:58.040Z,3.70
2023-02-03T07:06:29.481Z,3.50
2023-02-03T07:09:00.681Z,4.30
2023-02-03T07:11:30.640Z,4.90
2023-02-03T07:13:59.631Z,4.50
2023-02-03T07:16:28.302Z,4.10
2023-02-03T07:18:57.354Z,4.30
2023-02-03T07:21:26.188Z,4.30
2023-02-03T07:23:55.336Z,4.20
2023-02-03T07:26:25.526Z,4.60
2023-02-03T07:28:54.718Z,5.10
2023-02-03T07:31:23.363Z,5.10
2023-02-03T07:33:52.366Z,3.80
2023-02-03T07:36:21.046Z,3.40
2023-02-03T07:38:51.128Z,4.80
2023-02-03T07:41:19.837Z,4.20
2023-02-03T07:43:48.528Z,5.40
2023-02-03T07:46:17.637Z,5.60
2023-02-03T07:48:47.156Z,5.50
2023-02-03T07:51:16.334Z,5.80
2023-02-03T07:53:46.410Z,5.70
2023-02-03T07:56:15.097Z,5.10
2023-02-03T07:58:44.138Z,6.70
2023-02-03T08:01:14.443Z,7.00
2023-02-03T08:03:43.249Z,6.80
2023-02-03T08:06:11.916Z,6.70
2023-02-03T08:08:41.426Z,5.70
2023-02-03T08:11:10.698Z,6.30
2023-02-03T08:13:39.988Z,6.30
2023-02-03T08:16:09.156Z,5.80
2023-02-03T08:18:38.032Z,8.00
2023-02-03T08:21:06.930Z,6.50
2023-02-03T08:23:35.655Z,6.10
2023-02-03T08:26:04.700Z,6.50
2023-02-03T08:28:33.592Z,7.20
2023-02-03T08:31:02.864Z,5.50
2023-02-03T08:33:31.579Z,5.90
2023-02-03T08:36:05.961Z,6.30
2023-02-03T08:38:35.588Z,6.00
2023-02-03T08:41:12.268Z,6.20
2023-02-03T08:43:42.737Z,6.30
2023-02-03T08:46:12.342Z,5.30
2023-02-03T08:48:43.102Z,6.00
2023-02-03T08:51:13.459Z,5.30
2023-02-03T08:53:42.257Z,5.90
2023-02-03T08:56:12.237Z,7.40
2023-02-03T08:58:41.547Z,6.20
2023-02-03T09:01:11.709Z,5.00
2023-02-03T09:03:40.743Z,4.70
2023-02-03T09:06:12.008Z,5.90
2023-02-03T09:08:41.253Z,5.40
2023-02-03T09:11:11.124Z,5.70
2023-02-03T09:13:40.459Z,5.40
2023-02-03T09:16:09.920Z,5.90
2023-02-03T09:18:39.123Z,5.90
2023-02-03T09:21:09.013Z,5.90
2023-02-03T09:23:38.844Z,5.80
2023-02-03T09:26:09.824Z,4.90
2023-02-03T09:28:38.566Z,5.90
2023-02-03T09:31:11.851Z,6.20
2023-02-03T09:33:41.273Z,6.50
2023-02-03T09:36:11.477Z,7.20
2023-02-03T09:38:40.523Z,6.90
2023-02-03T09:41:35.987Z,5.90
2023-02-03T09:44:08.484Z,7.50
2023-02-03T09:46:40.672Z,6.70
2023-02-03T09:49:13.555Z,8.20
2023-02-03T09:52:04.654Z,7.20
2023-02-03T09:54:44.416Z,7.50
2023-02-03T09:57:25.194Z,5.90
2023-02-03T09:59:55.105Z,6.30
2023-02-03T10:02:40.095Z,7.00
2023-02-03T10:05:21.473Z,6.80
2023-02-03T10:08:02.478Z,5.80
2023-02-03T10:10:49.951Z,6.00
2023-02-03T10:13:18.618Z,7.70
2023-02-03T10:16:12.863Z,7.00
2023-02-03T10:18:47.335Z,6.50
2023-02-03T10:21:32.700Z,6.40
2023-02-03T10:24:01.305Z,5.10
2023-02-03T10:26:31.808Z,5.60
2023-02-03T10:29:37.997Z,6.50
2023-02-03T10:32:11.407Z,6.20
2023-02-03T10:34:40.446Z,5.60
2023-02-03T10:37:30.792Z,6.10
2023-02-03T10:40:05.954Z,7.30
2023-02-03T10:42:55.169Z,5.00
2023-02-03T10:45:23.707Z,5.20
2023-02-03T10:47:56.310Z,5.90
2023-02-03T10:50:33.037Z,5.50
2023-02-03T10:53:22.891Z,5.20
2023-02-03T10:56:01.911Z,5.60
2023-02-03T10:58:32.028Z,5.10
2023-02-03T11:01:13.826Z,6.30
2023-02-03T11:04:05.931Z,6.00
2023-02-03T11:06:37.166Z,5.70
2023-02-03T11:09:25.391Z,6.60
2023-02-03T11:12:05.811Z,5.40
2023-02-03T11:14:44.632Z,5.30
2023-02-03T11:17:23.960Z,4.80
2023-02-03T11:19:54.335Z,6.50
2023-02-03T11:22:34.789Z,6.10
2023-02-03T11:25:05.581Z,6.90
2023-02-03T11:27:34.546Z,11.30
2023-02-03T11:30:16.738Z,7.70
2023-02-03T11:32:45.590Z,8.20
2023-02-03T11:35:27.088Z,9.40
2023-02-03T11:37:59.850Z,10.00
2023-02-03T11:40:32.819Z,7.90
2023-02-03T11:43:02.766Z,8.00
2023-02-03T11:45:42.971Z,7.90
2023-02-03T11:48:33.383Z,7.40
2023-02-03T11:51:27.333Z,10.10
2023-02-03T11:54:24.039Z,8.40
2023-02-03T11:57:11.160Z,8.80
2023-02-03T11:59:40.310Z,8.10
2023-02-03T12:02:16.132Z,8.10
2023-02-03T12:05:04.381Z,7.50
2023-02-03T12:07:47.339Z,7.80
2023-02-03T12:13:37.133Z,6.10
2023-02-03T12:16:28.016Z,7.00
2023-02-03T12:19:23.228Z,6.60
2023-02-03T12:21:57.503Z,7.30
2023-02-03T12:24:45.631Z,7.40
2023-02-03T12:27:44.955Z,7.00
2023-02-03T12:30:15.377Z,7.00
2023-02-03T12:32:48.623Z,6.80
2023-02-03T12:35:23.215Z,6.30
2023-02-03T12:37:57.346Z,7.30
2023-02-03T12:40:49.261Z,7.00
2023-02-03T12:43:20.844Z,7.50
2023-02-03T12:45:55.695Z,7.50
2023-02-03T12:48:29.086Z,6.50
2023-02-03T12:51:01.719Z,7.00
2023-02-03T12:53:35.329Z,7.00
2023-02-03T12:56:07.889Z,7.50
2023-02-03T12:58:39.601Z,7.60
2023-02-03T13:01:13.594Z,6.70
2023-02-03T13:03:46.889Z,6.40
2023-02-03T13:06:17.300Z,6.50
2023-02-03T13:09:04.971Z,7.40
2023-02-03T13:12:05.419Z,6.20
2023-02-03T13:15:01.208Z,8.70
2023-02-03T13:17:32.813Z,8.40
2023-02-03T13:20:15.704Z,8.30
2023-02-03T13:22:44.880Z,8.10
2023-02-03T13:25:26.144Z,6.90
2023-02-03T13:28:11.195Z,7.70
2023-02-03T13:30:52.983Z,9.40
2023-02-03T13:33:49.429Z,8.30
2023-02-03T13:36:40.479Z,7.50
2023-02-03T13:39:11.597Z,8.10
2023-02-03T13:41:54.697Z,7.00
2023-02-03T13:44:29.746Z,7.20
2023-02-03T13:46:58.553Z,7.90
2023-02-03T13:49:32.124Z,7.60
2023-02-03T13:52:00.918Z,7.90
2023-02-03T13:54:37.776Z,7.50
2023-02-03T13:57:22.701Z,8.00
2023-02-03T13:59:51.382Z,7.60
2023-02-03T14:02:20.061Z,7.80
2023-02-03T14:04:49.029Z,7.10
2023-02-03T14:07:40.097Z,8.70
2023-02-03T14:10:15.702Z,7.10
2023-02-03T14:12:50.646Z,7.50
2023-02-03T14:15:30.485Z,8.60
2023-02-03T14:18:23.913Z,8.20
2023-02-03T14:20:55.347Z,8.00
2023-02-03T14:23:30.746Z,8.40
2023-02-03T14:25:59.620Z,9.40
2023-02-03T14:28:40.686Z,8.30
2023-02-03T14:31:23.860Z,8.00
2023-02-03T14:34:14.217Z,8.60
2023-02-03T14:36:56.004Z,8.20
2023-02-03T14:39:55.568Z,7.10
2023-02-03T14:42:39.948Z,8.20
2023-02-03T14:45:11.636Z,8.30
2023-02-03T14:47:51.658Z,8.10
2023-02-03T14:50:32.293Z,8.30
2023-02-03T14:53:09.454Z,7.80
2023-02-03T14:55:52.682Z,8.70
2023-02-03T14:58:43.585Z,8.50
2023-02-03T15:01:30.117Z,9.00
2023-02-03T15:04:11.281Z,9.00
2023-02-03T15:06:45.015Z,8.80
2023-02-03T15:09:26.573Z,11.10
2023-02-03T15:11:56.096Z,10.00
2023-02-03T15:14:26.712Z,9.90
2023-02-03T15:17:03.407Z,10.30
2023-02-03T15:19:34.636Z,9.30
2023-02-03T15:22:03.405Z,10.40
2023-02-03T15:24:36.211Z,9.60
2023-02-03T15:27:05.176Z,10.60
2023-02-03T15:29:34.689Z,10.60
2023-02-03T15:32:07.049Z,10.10
2023-02-03T15:34:43.713Z,10.40
2023-02-03T15:37:30.076Z,10.40
2023-02-03T15:40:01.573Z,9.40
2023-02-03T15:45:27.701Z,10.90
2023-02-03T15:48:18.978Z,10.10
2023-02-03T15:50:52.828Z,10.90
2023-02-03T15:53:46.480Z,14.50
2023-02-03T15:56:23.880Z,15.20
2023-02-03T15:58:53.670Z,11.10
2023-02-03T16:01:24.168Z,10.50
2023-02-03T16:03:53.404Z,11.00
2023-02-03T16:06:36.474Z,10.80
2023-02-03T16:09:07.308Z,10.60
2023-02-03T16:11:38.304Z,11.10
2023-02-03T16:14:13.115Z,12.00
2023-02-03T16:16:55.250Z,14.80
2023-02-03T16:19:38.688Z,11.30
2023-02-03T16:22:28.424Z,11.90
2023-02-03T16:24:58.083Z,13.70
2023-02-03T16:27:28.159Z,11.90
2023-02-03T16:30:23.529Z,11.60
2023-02-03T16:33:40.829Z,13.70
2023-02-03T16:36:32.507Z,13.10
2023-02-03T16:39:28.995Z,14.10
2023-02-03T16:42:18.467Z,14.20
2023-02-03T16:45:05.983Z,12.50
2023-02-03T16:47:58.369Z,13.50
2023-02-03T16:50:45.739Z,13.00
2023-02-03T16:53:23.789Z,13.80
2023-02-03T16:55:54.854Z,11.90
2023-02-03T16:58:23.648Z,14.70
2023-02-03T17:00:53.665Z,13.70
2023-02-03T17:03:24.240Z,13.70
2023-02-03T17:05:53.077Z,17.80
2023-02-03T17:08:23.636Z,17.70
2023-02-03T17:10:51.963Z,16.90
2023-02-03T17:13:21.503Z,16.90
2023-02-03T17:15:53.032Z,19.30
2023-02-03T17:18:22.321Z,16.50
2023-02-03T17:20:51.380Z,17.40
2023-02-03T17:23:20.204Z,17.30
2023-02-03T17:25:49.847Z,24.00
2023-02-03T17:28:18.958Z,24.10
2023-02-03T17:30:56.915Z,20.50
2023-02-03T17:33:27.794Z,19.10
2023-02-03T17:36:15.811Z,16.60
2023-02-03T17:55:33.422Z,16.70
2023-02-03T17:58:04.641Z,15.40
2023-02-03T18:00:33.575Z,21.70
2023-02-03T18:03:02.501Z,22.00
2023-02-03T18:05:32.963Z,22.80
2023-02-03T18:08:09.078Z,37.00
2023-02-03T18:10:45.356Z,20.60
2023-02-03T18:13:15.224Z,20.90
2023-02-03T18:15:44.303Z,33.00
2023-02-03T18:18:14.525Z,16.00
2023-02-03T18:20:44.272Z,12.70
2023-02-03T18:23:13.294Z,11.90
2023-02-03T18:25:42.725Z,11.50
2023-02-03T18:28:11.481Z,11.10
2023-02-03T18:30:40.914Z,11.40
2023-02-03T18:33:10.796Z,13.20
2023-02-03T18:35:40.745Z,11.90
2023-02-03T18:38:10.778Z,11.10
2023-02-03T18:40:39.869Z,10.30
2023-02-03T18:43:09.928Z,14.60
2023-02-03T18:45:39.176Z,10.70
2023-02-03T18:48:08.452Z,11.00
2023-02-03T18:50:44.818Z,8.20
2023-02-03T18:53:13.935Z,7.20
2023-02-03T18:55:43.869Z,8.40
2023-02-03T18:58:13.041Z,7.90
2023-02-03T19:01:07.149Z,6.90
2023-02-03T19:03:38.071Z,8.90
2023-02-03T19:06:12.182Z,8.10
2023-02-03T19:08:41.457Z,6.30
2023-02-03T19:11:10.293Z,7.40
2023-02-03T19:13:40.342Z,7.30
2023-02-03T19:16:10.188Z,6.60
2023-02-03T19:18:39.829Z,7.00
2023-02-03T19:21:08.984Z,7.80
2023-02-03T19:23:39.660Z,7.90
2023-02-03T19:26:10.275Z,8.70
2023-02-03T19:28:40.076Z,7.50
2023-02-03T19:31:12.115Z,7.30
2023-02-03T19:33:41.555Z,7.60
2023-02-03T19:36:11.455Z,6.70
2023-02-03T19:38:40.732Z,7.50
2023-02-03T19:41:10.110Z,7.10
2023-02-03T19:43:40.321Z,7.70
2023-02-03T19:46:09.362Z,7.20
2023-02-03T19:48:40.030Z,7.30
2023-02-03T19:51:11.089Z,8.90
2023-02-03T19:53:40.916Z,8.40
2023-02-03T19:56:09.975Z,7.80
2023-02-03T19:58:39.724Z,9.40
2023-02-03T20:01:10.404Z,8.30
2023-02-03T20:03:40.014Z,9.10
2023-02-03T20:06:08.786Z,7.90
2023-02-03T20:08:59.637Z,9.00
2023-02-03T20:11:29.275Z,7.60
2023-02-03T20:13:59.060Z,8.70
2023-02-03T20:16:27.912Z,8.60
2023-02-03T20:18:58.459Z,8.90
2023-02-03T20:21:27.060Z,9.20
2023-02-03T20:23:56.552Z,6.90
2023-02-03T20:26:25.671Z,7.90
2023-02-03T20:28:54.827Z,8.20
2023-02-03T20:31:24.670Z,6.90
2023-02-03T20:33:54.967Z,7.90
2023-02-03T20:36:24.622Z,7.80
2023-02-03T20:38:54.564Z,7.40
2023-02-03T20:41:24.010Z,8.20
2023-02-03T20:43:52.799Z,8.00
2023-02-03T20:46:21.550Z,8.70
2023-02-03T20:48:50.792Z,8.70
2023-02-03T20:51:21.277Z,7.60
2023-02-03T20:53:50.686Z,8.50
2023-02-03T20:56:21.994Z,7.70
2023-02-03T20:58:51.157Z,7.60
2023-02-03T21:01:21.510Z,7.10
2023-02-03T21:04:08.906Z,7.50
2023-02-03T21:06:38.259Z,7.50
2023-02-03T21:09:19.540Z,7.80
2023-02-03T21:11:49.184Z,7.50
2023-02-03T21:14:36.649Z,7.60
2023-02-03T21:17:24.456Z,8.50
2023-02-03T21:19:54.413Z,8.80
2023-02-03T21:22:25.162Z,7.30
2023-02-03T21:24:58.795Z,7.10
2023-02-03T21:27:32.056Z,8.70
2023-02-03T21:30:02.415Z,7.90
2023-02-03T21:32:39.267Z,7.90
2023-02-03T21:35:24.288Z,7.80
2023-02-03T21:37:57.216Z,7.80
2023-02-03T21:40:28.465Z,8.30
2023-02-03T21:42:57.133Z,8.50
2023-02-03T21:45:37.258Z,7.70
2023-02-03T21:48:28.024Z,7.10
2023-02-03T21:51:01.153Z,7.30
2023-02-03T21:53:35.762Z,7.60
2023-02-03T21:56:24.832Z,7.40
2023-02-03T21:58:57.834Z,8.80
2023-02-03T22:01:28.482Z,7.20
2023-02-03T22:04:00.031Z,7.70
2023-02-03T22:06:49.725Z,7.60
2023-02-03T22:09:22.565Z,7.30
2023-02-03T22:12:11.078Z,7.10
2023-02-03T22:14:39.659Z,7.00
2023-02-03T22:17:09.158Z,7.00
2023-02-03T22:19:37.977Z,6.30
2023-02-03T22:22:06.537Z,6.40
2023-02-03T22:24:35.120Z,5.70
2023-02-03T22:27:04.437Z,6.10
2023-02-03T22:29:33.306Z,5.00
2023-02-03T22:32:02.092Z,5.90
2023-02-03T22:34:31.171Z,4.60
2023-02-03T22:37:00.975Z,5.20
2023-02-03T22:39:29.793Z,5.60
2023-02-03T22:41:58.592Z,6.10
2023-02-03T22:44:27.550Z,4.60
2023-02-03T22:46:56.039Z,7.00
2023-02-03T22:49:25.046Z,6.70
2023-02-03T22:51:53.740Z,7.00
2023-02-03T22:54:22.333Z,6.70
2023-02-03T22:56:51.219Z,8.30
2023-02-03T22:59:19.689Z,7.90
2023-02-03T23:01:48.554Z,9.40
2023-02-03T23:04:17.589Z,8.20
2023-02-03T23:06:46.557Z,10.20
2023-02-03T23:09:14.990Z,9.30
2023-02-03T23:11:43.604Z,9.60
2023-02-03T23:14:14.282Z,11.40
2023-02-03T23:16:44.046Z,10.70
2023-02-03T23:19:13.067Z,10.20
2023-02-03T23:21:42.384Z,10.50
2023-02-03T23:24:11.181Z,10.70
2023-02-03T23:26:40.051Z,10.60
2023-02-03T23:29:08.754Z,11.70
2023-02-03T23:31:37.489Z,10.40
2023-02-03T23:34:24.908Z,10.80
2023-02-03T23:36:53.786Z,10.80
2023-02-03T23:39:22.308Z,11.50
2023-02-03T23:41:51.036Z,9.50
2023-02-03T23:44:19.436Z,9.80
2023-02-03T23:46:48.086Z,9.30
2023-02-03T23:49:16.852Z,8.70
2023-02-03T23:51:45.798Z,8.20
2023-02-03T23:54:14.464Z,8.20
2023-02-03T23:56:43.176Z,8.00
2023-02-03T23:59:12.209Z,6.10
